createdAt,value
2019-02-27T00:01:42.173Z,15
2019-02-27T00:06:47.623Z,15
2019-02-27T00:11:47.061Z,18
2019-02-27T00:16:49.607Z,16
2019-02-27T00:21:52.023Z,16
2019-02-27T00:26:54.402Z,16
2019-02-27T00:31:56.869Z,16
2019-02-27T00:36:59.338Z,16
2019-02-27T00:42:01.809Z,17
2019-02-27T00:47:04.263Z,17
2019-02-27T00:52:06.733Z,15
2019-02-27T00:57:09.186Z,18
2019-02-27T01:02:11.747Z,17
2019-02-27T01:07:14.101Z,16
2019-02-27T01:12:16.584Z,15
2019-02-27T01:17:20.881Z,17
2019-02-27T01:22:21.510Z,16
2019-02-27T01:27:23.955Z,17
2019-02-27T01:32:28.819Z,18
2019-02-27T01:37:31.631Z,18
2019-02-27T01:42:32.737Z,18
2019-02-27T01:47:35.937Z,15
2019-02-27T01:52:36.233Z,15
2019-02-27T01:57:38.686Z,15
2019-02-27T02:02:41.278Z,16
2019-02-27T02:07:43.626Z,16
2019-02-27T02:12:46.067Z,16
2019-02-27T02:17:48.578Z,16
2019-02-27T02:22:50.972Z,16
2019-02-27T02:27:53.464Z,15
2019-02-27T02:32:55.873Z,17
2019-02-27T02:37:58.323Z,16
2019-02-27T02:43:03.063Z,15
2019-02-27T02:48:03.226Z,17
2019-02-27T02:53:05.744Z,16
2019-02-27T02:58:11.240Z,15
2019-02-27T03:03:10.667Z,16
2019-02-27T03:08:13.155Z,15
2019-02-27T03:13:15.516Z,15
2019-02-27T03:18:18.001Z,17
2019-02-27T03:23:20.433Z,15
2019-02-27T03:28:22.946Z,14
2019-02-27T03:33:27.156Z,16
2019-02-27T03:38:27.814Z,16
2019-02-27T03:43:30.384Z,15
2019-02-27T03:48:32.738Z,15
2019-02-27T03:53:35.179Z,18
2019-02-27T03:58:37.624Z,16
2019-02-27T04:03:40.135Z,16
2019-02-27T04:08:44.682Z,16
2019-02-27T04:13:45.011Z,14
2019-02-27T04:18:47.507Z,15
2019-02-27T04:23:50.070Z,18
2019-02-27T04:28:52.389Z,19
2019-02-27T04:33:59.513Z,17
2019-02-27T04:38:57.312Z,15
2019-02-27T04:43:59.785Z,17
2019-02-27T04:49:04.807Z,17
2019-02-27T04:54:07.167Z,17
2019-02-27T04:59:07.125Z,17
2019-02-27T05:04:09.606Z,18
2019-02-27T05:09:12.780Z,18
2019-02-27T05:19:17.035Z,20
2019-02-27T05:24:19.395Z,20
2019-02-27T05:29:21.913Z,24
2019-02-27T05:34:24.372Z,17
2019-02-27T05:39:26.799Z,18
2019-02-27T05:44:29.259Z,17
2019-02-27T05:49:31.707Z,17
2019-02-27T05:54:34.211Z,17
2019-02-27T05:59:41.610Z,18
2019-02-27T06:04:39.100Z,16
2019-02-27T06:09:43.726Z,19
2019-02-27T06:14:43.987Z,19
2019-02-27T06:19:46.502Z,23
2019-02-27T06:24:48.873Z,29
2019-02-27T06:29:51.331Z,22
2019-02-27T06:34:53.824Z,17
2019-02-27T06:39:56.290Z,17
2019-02-27T06:45:03.793Z,17
2019-02-27T06:50:01.262Z,19
2019-02-27T06:55:03.645Z,18
2019-02-27T07:00:06.090Z,14
2019-02-27T07:05:13.212Z,16
2019-02-27T07:10:11.047Z,16
2019-02-27T07:15:13.529Z,20
2019-02-27T07:20:15.913Z,19
2019-02-27T07:25:18.390Z,17
2019-02-27T07:30:20.851Z,18
2019-02-27T07:35:26.289Z,19
2019-02-27T07:40:25.748Z,19
2019-02-27T07:45:28.275Z,20
2019-02-27T07:50:32.491Z,19
2019-02-27T07:55:33.195Z,19
2019-02-27T08:00:42.657Z,17
2019-02-27T08:05:38.113Z,15
2019-02-27T08:10:40.506Z,14
2019-02-27T08:15:42.998Z,14
2019-02-27T08:20:45.438Z,17
2019-02-27T08:25:47.901Z,16
2019-02-27T08:30:50.367Z,15
2019-02-27T08:35:52.864Z,14
2019-02-27T08:40:58.195Z,15
2019-02-27T08:51:01.410Z,16
2019-02-27T08:56:02.710Z,14
2019-02-27T09:01:05.101Z,15
2019-02-27T09:06:07.604Z,14
2019-02-27T09:11:10.093Z,14
2019-02-27T09:16:12.509Z,12
2019-02-27T09:21:14.981Z,12
2019-02-27T09:26:17.432Z,11
2019-02-27T09:31:19.870Z,11
2019-02-27T09:36:22.321Z,12
2019-02-27T09:41:24.822Z,11
2019-02-27T09:46:27.244Z,11
2019-02-27T09:51:29.700Z,11
2019-02-27T09:56:32.770Z,11
2019-02-27T10:01:35.285Z,11
2019-02-27T10:06:37.361Z,10
2019-02-27T10:11:39.607Z,10
2019-02-27T10:16:42.025Z,11
2019-02-27T10:21:45.248Z,10
2019-02-27T10:26:46.929Z,11
2019-02-27T10:31:49.389Z,11
2019-02-27T10:36:51.988Z,9
2019-02-27T10:41:54.437Z,10
2019-02-27T10:46:59.791Z,9
2019-02-27T10:51:59.234Z,9
2019-02-27T10:57:01.781Z,9
2019-02-27T11:02:04.225Z,9
2019-02-27T11:07:06.734Z,8
2019-02-27T11:12:09.075Z,9
2019-02-27T11:17:11.524Z,9
2019-02-27T11:22:13.994Z,9
2019-02-27T11:27:16.887Z,10
2019-02-27T11:32:22.864Z,11
2019-02-27T11:37:21.433Z,9
2019-02-27T11:42:23.845Z,9
2019-02-27T11:47:26.288Z,8
2019-02-27T11:52:28.931Z,5
2019-02-27T11:57:31.341Z,6
2019-02-27T12:02:36.966Z,4
2019-02-27T12:07:36.206Z,4
2019-02-27T12:12:38.607Z,4
2019-02-27T12:17:41.343Z,4
2019-02-27T12:22:43.538Z,3
2019-02-27T12:27:49.723Z,3
2019-02-27T12:32:48.462Z,4
2019-02-27T12:37:50.954Z,3
2019-02-27T12:42:53.348Z,2
2019-02-27T12:47:55.797Z,2
2019-02-27T12:52:58.294Z,1
2019-02-27T12:58:00.789Z,2
2019-02-27T13:03:03.211Z,2
2019-02-27T13:08:05.673Z,3
2019-02-27T13:13:08.157Z,2
2019-02-27T13:18:10.655Z,2
2019-02-27T13:23:13.052Z,3
2019-02-27T13:28:15.653Z,3
2019-02-27T13:33:22.967Z,3
2019-02-27T13:38:20.488Z,3
2019-02-27T13:43:24.312Z,3
2019-02-27T13:48:25.569Z,4
2019-02-27T13:53:27.855Z,4
2019-02-27T13:58:30.247Z,4
2019-02-27T14:03:32.782Z,3
2019-02-27T14:08:35.215Z,4
2019-02-27T14:13:37.638Z,4
2019-02-27T14:18:40.099Z,4
2019-02-27T14:23:42.607Z,3
2019-02-27T14:28:45.072Z,3
2019-02-27T14:33:47.497Z,4
2019-02-27T14:38:50.383Z,3
2019-02-27T14:43:52.408Z,3
2019-02-27T14:48:54.842Z,3
2019-02-27T14:53:57.288Z,3
2019-02-27T14:58:59.761Z,3
2019-02-27T15:04:02.309Z,3
2019-02-27T15:09:06.256Z,2
2019-02-27T15:14:07.117Z,3
2019-02-27T15:19:09.653Z,3
2019-02-27T15:24:12.167Z,3
2019-02-27T15:29:14.502Z,3
2019-02-27T15:34:16.951Z,3
2019-02-27T15:39:21.017Z,3
2019-02-27T15:44:21.869Z,3
2019-02-27T15:49:24.337Z,3
2019-02-27T15:54:26.810Z,3
2019-02-27T15:59:29.290Z,3
2019-02-27T16:04:31.731Z,3
2019-02-27T16:09:34.169Z,3
2019-02-27T16:14:36.695Z,3
2019-02-27T16:19:39.093Z,3
2019-02-27T16:24:43.730Z,4
2019-02-27T16:29:43.994Z,4
2019-02-27T16:34:46.442Z,4
2019-02-27T16:39:48.976Z,4
2019-02-27T16:44:54.344Z,13
2019-02-27T16:49:54.288Z,13
2019-02-27T16:55:00.718Z,19
2019-02-27T16:59:58.754Z,21
2019-02-27T17:05:01.293Z,15
2019-02-27T17:10:03.695Z,12
2019-02-27T17:15:06.130Z,17
2019-02-27T17:20:12.445Z,10
2019-02-27T17:25:11.026Z,15
2019-02-27T17:30:13.511Z,13
2019-02-27T17:35:15.978Z,11
2019-02-27T17:40:18.423Z,14
2019-02-27T17:45:20.888Z,12
2019-02-27T17:50:23.304Z,6
2019-02-27T17:55:25.764Z,6
2019-02-27T18:00:28.537Z,8
2019-02-27T18:05:30.689Z,17
2019-02-27T18:10:37.067Z,26
2019-02-27T18:15:35.596Z,9
2019-02-27T18:20:38.076Z,10
2019-02-27T18:25:41.957Z,26
2019-02-27T18:30:42.959Z,10
2019-02-27T18:35:45.425Z,7
2019-02-27T18:40:47.973Z,12
2019-02-27T18:45:50.763Z,10
2019-02-27T18:50:52.795Z,12
2019-02-27T18:55:55.313Z,14
2019-02-27T19:00:57.709Z,13
2019-02-27T19:06:00.200Z,14
2019-02-27T19:11:02.629Z,12
2019-02-27T19:16:05.113Z,10
2019-02-27T19:21:12.548Z,11
2019-02-27T19:26:10.071Z,9
2019-02-27T19:36:19.068Z,9
2019-02-27T19:41:17.451Z,11
2019-02-27T19:46:19.833Z,11
2019-02-27T19:51:22.279Z,8
2019-02-27T19:56:24.772Z,10
2019-02-27T20:01:27.231Z,10
2019-02-27T20:06:29.700Z,9
2019-02-27T20:11:32.336Z,9
2019-02-27T20:16:34.649Z,9
2019-02-27T20:21:37.053Z,8
2019-02-27T20:26:44.387Z,10
2019-02-27T20:31:41.986Z,16
2019-02-27T20:36:44.449Z,17
2019-02-27T20:41:46.906Z,13
2019-02-27T20:46:50.173Z,11
2019-02-27T20:51:51.885Z,13
2019-02-27T20:56:55.618Z,11
2019-02-27T21:01:56.782Z,12
2019-02-27T21:06:59.216Z,10
2019-02-27T21:12:04.247Z,12
2019-02-27T21:17:04.153Z,10
2019-02-27T21:22:11.686Z,11
2019-02-27T21:27:09.093Z,9
2019-02-27T21:32:11.529Z,10
2019-02-27T21:37:16.137Z,11
2019-02-27T21:42:19.292Z,9
2019-02-27T21:47:18.980Z,10
2019-02-27T21:52:22.374Z,10
2019-02-27T21:57:25.464Z,10
2019-02-27T22:02:27.154Z,9
2019-02-27T22:07:32.799Z,9
2019-02-27T22:12:32.357Z,8
2019-02-27T22:17:36.605Z,9
2019-02-27T22:22:41.072Z,8
2019-02-27T22:27:38.710Z,9
2019-02-27T22:32:41.117Z,9
2019-02-27T22:37:43.567Z,8
2019-02-27T22:42:48.384Z,8
2019-02-27T22:47:48.606Z,8
2019-02-27T22:52:54.035Z,9
2019-02-27T22:57:54.717Z,8
2019-02-27T23:02:55.908Z,10
2019-02-27T23:07:58.368Z,8
2019-02-27T23:13:00.801Z,7
2019-02-27T23:18:05.750Z,7
2019-02-27T23:23:05.789Z,8
2019-02-27T23:28:08.252Z,7
2019-02-27T23:33:10.683Z,7
2019-02-27T23:38:13.208Z,8
2019-02-27T23:43:15.636Z,6
2019-02-27T23:48:18.139Z,6
2019-02-27T23:53:20.527Z,7
2019-02-27T23:58:23.026Z,6
